createdAt,value
2023-04-09T00:00:41.351Z,3.85
2023-04-09T00:03:08.061Z,6.15
2023-04-09T00:05:39.251Z,6.05
2023-04-09T00:08:06.050Z,6.07
2023-04-09T00:10:32.592Z,6.57
2023-04-09T00:12:59.105Z,4.75
2023-04-09T00:15:31.063Z,13.73
2023-04-09T00:17:59.038Z,4.20
2023-04-09T00:20:25.853Z,5.88
2023-04-09T00:22:52.416Z,4.82
2023-04-09T00:25:19.865Z,7.57
2023-04-09T00:27:46.830Z,4.28
2023-04-09T00:30:13.384Z,3.78
2023-04-09T00:32:40.048Z,4.38
2023-04-09T00:35:07.102Z,6.28
2023-04-09T00:37:33.761Z,3.85
2023-04-09T00:40:00.922Z,7.55
2023-04-09T00:42:27.504Z,4.25
2023-04-09T00:44:54.175Z,6.45
2023-04-09T00:47:21.319Z,4.07
2023-04-09T00:49:48.177Z,4.72
2023-04-09T00:52:14.807Z,6.05
2023-04-09T00:54:41.440Z,3.05
2023-04-09T00:57:08.059Z,3.83
2023-04-09T00:59:34.594Z,4.57
2023-04-09T01:02:01.251Z,4.80
2023-04-09T01:04:27.789Z,5.50
2023-04-09T01:07:29.327Z,5.05
2023-04-09T01:10:24.469Z,4.10
2023-04-09T01:13:16.674Z,3.38
2023-04-09T01:15:56.926Z,3.15
2023-04-09T01:18:31.537Z,3.17
2023-04-09T01:21:29.824Z,3.25
2023-04-09T01:24:16.571Z,4.63
2023-04-09T01:27:07.836Z,3.33
2023-04-09T01:29:52.770Z,3.88
2023-04-09T01:32:20.940Z,4.00
2023-04-09T01:34:48.326Z,5.40
2023-04-09T01:37:16.260Z,3.00
2023-04-09T01:39:42.822Z,6.53
2023-04-09T01:42:11.120Z,4.40
2023-04-09T01:44:39.794Z,3.53
2023-04-09T01:47:08.640Z,3.10
2023-04-09T01:49:36.102Z,5.55
2023-04-09T01:52:02.906Z,3.60
2023-04-09T01:54:29.477Z,3.55
2023-04-09T01:56:58.093Z,4.50
2023-04-09T01:59:25.512Z,3.72
2023-04-09T02:02:00.002Z,3.95
2023-04-09T02:04:35.953Z,3.38
2023-04-09T02:07:05.558Z,3.63
2023-04-09T02:09:37.122Z,5.10
2023-04-09T02:12:06.501Z,3.08
2023-04-09T02:14:33.712Z,4.65
2023-04-09T02:17:01.125Z,5.22
2023-04-09T02:19:48.153Z,2.95
2023-04-09T02:22:16.164Z,3.47
2023-04-09T02:24:43.097Z,3.17
2023-04-09T02:27:09.805Z,5.50
2023-04-09T02:29:38.475Z,3.95
2023-04-09T02:32:05.343Z,3.85
2023-04-09T02:34:31.921Z,4.95
2023-04-09T02:36:58.456Z,3.63
2023-04-09T02:39:25.102Z,3.25
2023-04-09T02:41:52.812Z,3.40
2023-04-09T02:44:19.313Z,5.13
2023-04-09T02:46:47.780Z,2.72
2023-04-09T02:49:14.436Z,3.40
2023-04-09T02:51:40.988Z,4.00
2023-04-09T02:54:07.519Z,3.00
2023-04-09T02:56:34.043Z,5.93
2023-04-09T02:59:00.541Z,4.15
2023-04-09T03:01:27.324Z,3.08
2023-04-09T03:03:53.853Z,3.75
2023-04-09T03:06:20.472Z,4.97
2023-04-09T03:08:47.218Z,4.20
2023-04-09T03:11:13.863Z,2.78
2023-04-09T03:13:40.537Z,6.38
2023-04-09T03:16:08.474Z,5.45
2023-04-09T03:18:35.117Z,3.35
2023-04-09T03:21:07.470Z,3.55
2023-04-09T03:23:37.032Z,4.97
2023-04-09T03:26:06.154Z,4.07
2023-04-09T03:28:43.071Z,5.13
2023-04-09T03:31:09.655Z,4.05
2023-04-09T03:33:38.555Z,3.50
2023-04-09T03:36:05.389Z,5.50
2023-04-09T03:39:04.286Z,6.32
2023-04-09T03:41:41.321Z,4.53
2023-04-09T03:44:12.126Z,3.13
2023-04-09T03:46:59.000Z,4.05
2023-04-09T03:49:26.495Z,4.72
2023-04-09T03:51:56.016Z,4.25
2023-04-09T03:54:24.613Z,4.90
2023-04-09T03:56:57.108Z,5.20
2023-04-09T03:59:24.817Z,2.53
2023-04-09T04:01:52.213Z,3.90
2023-04-09T04:04:20.586Z,3.63
2023-04-09T04:06:53.628Z,3.00
2023-04-09T04:12:13.562Z,3.15
2023-04-09T04:15:01.231Z,2.58
2023-04-09T04:17:39.788Z,2.30
2023-04-09T04:20:14.050Z,3.78
2023-04-09T04:22:53.257Z,3.92
2023-04-09T04:25:21.912Z,3.72
2023-04-09T04:27:48.684Z,3.35
2023-04-09T04:30:18.512Z,4.95
2023-04-09T04:33:17.142Z,2.88
2023-04-09T04:35:49.923Z,2.33
2023-04-09T04:38:32.536Z,2.25
2023-04-09T04:41:02.745Z,2.20
2023-04-09T04:43:32.224Z,4.00
2023-04-09T04:45:59.758Z,2.85
2023-04-09T04:48:29.394Z,2.95
2023-04-09T04:50:57.602Z,4.18
2023-04-09T04:53:27.296Z,2.63
2023-04-09T04:55:55.444Z,2.72
2023-04-09T04:58:26.065Z,4.47
2023-04-09T05:00:56.851Z,2.17
2023-04-09T05:03:25.957Z,3.60
2023-04-09T05:06:03.117Z,2.15
2023-04-09T05:08:37.517Z,1.98
2023-04-09T05:11:04.100Z,3.88
2023-04-09T05:13:35.584Z,3.40
2023-04-09T05:16:05.717Z,3.83
2023-04-09T05:18:33.587Z,2.83
2023-04-09T05:21:00.214Z,2.33
2023-04-09T05:23:29.568Z,2.33
2023-04-09T05:25:56.117Z,2.63
2023-04-09T05:28:54.966Z,2.95
2023-04-09T05:31:23.272Z,3.75
2023-04-09T05:34:09.210Z,5.70
2023-04-09T05:36:42.730Z,3.22
2023-04-09T05:39:10.943Z,1.50
2023-04-09T05:41:38.495Z,2.70
2023-04-09T05:44:20.826Z,2.70
2023-04-09T05:46:48.645Z,2.72
2023-04-09T05:49:19.419Z,1.95
2023-04-09T05:51:50.516Z,3.13
2023-04-09T05:54:23.302Z,3.20
2023-04-09T05:56:49.835Z,2.83
2023-04-09T05:59:17.187Z,2.80
2023-04-09T06:01:43.939Z,2.35
2023-04-09T06:04:10.631Z,2.35
2023-04-09T06:06:40.118Z,3.40
2023-04-09T06:09:06.696Z,1.85
2023-04-09T06:11:34.203Z,2.80
2023-04-09T06:14:00.910Z,2.60
2023-04-09T06:16:27.981Z,4.10
2023-04-09T06:18:56.770Z,3.67
2023-04-09T06:21:23.333Z,4.35
2023-04-09T06:23:50.515Z,2.63
2023-04-09T06:26:17.610Z,3.47
2023-04-09T06:28:44.224Z,4.30
2023-04-09T06:31:10.901Z,3.05
2023-04-09T06:33:37.535Z,4.47
2023-04-09T06:36:04.322Z,3.92
2023-04-09T06:38:30.925Z,5.05
2023-04-09T06:40:57.793Z,3.88
2023-04-09T06:43:24.446Z,4.65
2023-04-09T06:45:52.517Z,4.72
2023-04-09T06:48:19.087Z,4.65
2023-04-09T06:50:45.850Z,5.25
2023-04-09T06:53:12.421Z,4.10
2023-04-09T06:55:38.998Z,4.55
2023-04-09T06:58:05.757Z,3.92
2023-04-09T07:00:32.342Z,3.88
2023-04-09T07:02:59.265Z,7.53
2023-04-09T07:05:26.274Z,6.47
2023-04-09T07:07:52.816Z,4.80
2023-04-09T07:10:19.489Z,4.50
2023-04-09T07:12:46.129Z,5.93
2023-04-09T07:15:12.750Z,4.28
2023-04-09T07:17:39.324Z,8.07
2023-04-09T07:20:06.248Z,6.38
2023-04-09T07:22:32.774Z,5.22
2023-04-09T07:24:59.545Z,5.85
2023-04-09T07:27:27.552Z,4.95
2023-04-09T07:29:58.187Z,6.35
2023-04-09T07:32:26.214Z,5.95
2023-04-09T07:34:53.176Z,6.10
2023-04-09T07:37:20.714Z,5.97
2023-04-09T07:39:47.924Z,4.45
2023-04-09T07:42:14.534Z,6.80
2023-04-09T07:44:41.083Z,6.85
2023-04-09T07:47:08.361Z,7.45
2023-04-09T07:49:38.097Z,4.97
2023-04-09T07:52:05.754Z,4.72
2023-04-09T07:54:32.956Z,6.72
2023-04-09T07:56:59.966Z,5.97
2023-04-09T07:59:27.570Z,4.30
2023-04-09T08:01:54.234Z,7.85
2023-04-09T08:04:21.285Z,5.05
2023-04-09T08:06:50.651Z,5.75
2023-04-09T08:09:18.514Z,5.57
2023-04-09T08:11:48.512Z,5.60
2023-04-09T08:14:16.089Z,8.48
2023-04-09T08:16:44.306Z,7.90
2023-04-09T08:19:11.193Z,8.55
2023-04-09T08:21:39.049Z,4.93
2023-04-09T08:24:06.143Z,7.07
2023-04-09T08:26:32.719Z,6.13
2023-04-09T08:28:59.372Z,6.38
2023-04-09T08:31:26.358Z,7.35
2023-04-09T08:33:53.481Z,7.40
2023-04-09T08:36:21.043Z,6.75
2023-04-09T08:38:48.017Z,6.55
2023-04-09T08:41:19.914Z,5.43
2023-04-09T08:43:57.693Z,7.65
2023-04-09T08:46:26.382Z,4.82
2023-04-09T08:48:53.647Z,5.13
2023-04-09T08:51:23.263Z,6.95
2023-04-09T08:54:03.718Z,9.70
2023-04-09T08:56:31.385Z,7.03
2023-04-09T08:58:58.577Z,6.70
2023-04-09T09:01:30.467Z,7.20
2023-04-09T09:04:01.058Z,6.35
2023-04-09T09:06:32.488Z,6.50
2023-04-09T09:09:09.959Z,6.93
2023-04-09T09:11:38.574Z,7.55
2023-04-09T09:14:09.805Z,6.07
2023-04-09T09:16:43.205Z,6.35
2023-04-09T09:19:12.240Z,6.78
2023-04-09T09:21:40.074Z,6.30
2023-04-09T09:24:17.103Z,7.05
2023-04-09T09:26:43.706Z,7.68
2023-04-09T09:29:10.490Z,8.32
2023-04-09T09:31:49.882Z,6.38
2023-04-09T09:34:17.822Z,9.48
2023-04-09T09:36:45.523Z,6.65
2023-04-09T09:39:13.147Z,6.15
2023-04-09T09:41:41.154Z,6.38
2023-04-09T09:44:09.038Z,7.47
2023-04-09T09:47:12.862Z,6.80
2023-04-09T09:49:39.462Z,6.30
2023-04-09T09:52:10.546Z,5.20
2023-04-09T09:54:44.655Z,5.68
2023-04-09T09:57:14.757Z,6.95
2023-04-09T09:59:43.684Z,9.55
2023-04-09T10:02:32.754Z,7.97
2023-04-09T10:05:02.967Z,5.55
2023-04-09T10:07:30.799Z,8.18
2023-04-09T10:09:58.462Z,6.65
2023-04-09T10:12:25.372Z,7.15
2023-04-09T10:14:53.039Z,6.53
2023-04-09T10:17:20.057Z,6.70
2023-04-09T10:19:55.773Z,6.43
2023-04-09T10:22:23.686Z,8.00
2023-04-09T10:24:51.254Z,7.72
2023-04-09T10:27:18.290Z,4.63
2023-04-09T10:29:46.583Z,6.20
2023-04-09T10:32:21.042Z,6.20
2023-04-09T10:34:49.166Z,5.13
2023-04-09T10:37:24.389Z,4.95
2023-04-09T10:39:52.311Z,6.13
2023-04-09T10:42:21.985Z,5.10
2023-04-09T10:45:14.784Z,6.10
2023-04-09T10:47:43.267Z,8.35
2023-04-09T10:50:25.709Z,5.55
2023-04-09T10:55:42.024Z,4.50
2023-04-09T10:58:12.791Z,7.43
2023-04-09T11:00:42.091Z,6.93
2023-04-09T11:03:08.737Z,5.40
2023-04-09T11:05:39.868Z,6.88
2023-04-09T11:08:11.946Z,5.47
2023-04-09T11:10:39.476Z,8.75
2023-04-09T11:13:06.132Z,5.03
2023-04-09T11:15:35.524Z,7.07
2023-04-09T11:18:02.492Z,4.13
2023-04-09T11:20:31.084Z,6.25
2023-04-09T11:22:59.148Z,4.90
2023-04-09T11:25:27.694Z,4.70
2023-04-09T11:27:54.665Z,4.90
2023-04-09T11:30:21.343Z,5.90
2023-04-09T11:32:48.963Z,5.30
2023-04-09T11:35:19.566Z,4.50
2023-04-09T11:37:47.066Z,4.75
2023-04-09T11:40:18.778Z,4.80
2023-04-09T11:42:46.604Z,5.55
2023-04-09T11:45:14.351Z,5.63
2023-04-09T11:47:41.851Z,3.75
2023-04-09T11:50:09.372Z,5.95
2023-04-09T11:52:36.150Z,4.63
2023-04-09T11:55:04.432Z,4.57
2023-04-09T11:57:45.824Z,3.85
2023-04-09T12:00:17.153Z,5.15
2023-04-09T12:02:49.107Z,4.35
2023-04-09T12:05:47.864Z,6.05
2023-04-09T12:08:18.400Z,4.68
2023-04-09T12:10:45.419Z,5.05
2023-04-09T12:13:12.074Z,4.53
2023-04-09T12:15:41.166Z,4.18
2023-04-09T12:20:36.999Z,3.88
2023-04-09T12:23:05.723Z,4.35
2023-04-09T12:25:37.244Z,6.22
2023-04-09T12:28:04.940Z,4.95
2023-04-09T12:30:32.335Z,4.63
2023-04-09T12:32:59.416Z,4.47
2023-04-09T12:35:26.098Z,7.63
2023-04-09T12:37:53.050Z,4.93
2023-04-09T12:40:20.563Z,6.97
2023-04-09T12:42:47.439Z,6.90
2023-04-09T12:45:15.798Z,6.57
2023-04-09T12:47:42.882Z,7.28
2023-04-09T12:50:10.744Z,5.45
2023-04-09T12:52:37.569Z,7.13
2023-04-09T12:55:05.649Z,5.20
2023-04-09T12:57:32.317Z,7.57
2023-04-09T12:59:59.163Z,5.47
2023-04-09T13:02:26.143Z,7.07
2023-04-09T13:04:52.961Z,7.28
2023-04-09T13:07:20.506Z,5.47
2023-04-09T13:09:48.550Z,5.50
2023-04-09T13:12:16.189Z,6.03
2023-04-09T13:14:46.717Z,4.93
2023-04-09T13:17:13.435Z,5.88
2023-04-09T13:19:42.088Z,5.65
2023-04-09T13:22:09.378Z,6.97
2023-04-09T13:24:36.508Z,5.53
2023-04-09T13:27:04.791Z,7.55
2023-04-09T13:29:31.825Z,5.53
2023-04-09T13:31:58.666Z,6.20
2023-04-09T13:34:25.337Z,8.23
2023-04-09T13:36:52.079Z,9.02
2023-04-09T13:39:18.580Z,7.18
2023-04-09T13:41:45.248Z,6.53
2023-04-09T13:44:12.236Z,6.53
2023-04-09T13:46:38.831Z,6.13
2023-04-09T13:49:05.348Z,6.20
2023-04-09T13:51:32.194Z,7.78
2023-04-09T13:53:58.755Z,5.75
2023-04-09T13:56:27.326Z,5.38
2023-04-09T13:58:54.103Z,7.93
2023-04-09T14:01:21.259Z,6.03
2023-04-09T14:03:47.884Z,6.43
2023-04-09T14:06:14.551Z,7.47
2023-04-09T14:08:41.074Z,7.10
2023-04-09T14:11:07.687Z,6.18
2023-04-09T14:13:34.291Z,7.03
2023-04-09T14:16:00.977Z,7.53
2023-04-09T14:18:27.544Z,8.80
2023-04-09T14:20:54.248Z,8.10
2023-04-09T14:23:20.779Z,5.63
2023-04-09T14:25:47.282Z,5.90
2023-04-09T14:28:13.924Z,7.20
2023-04-09T14:30:40.462Z,5.88
2023-04-09T14:33:07.006Z,6.85
2023-04-09T14:35:33.881Z,4.95
2023-04-09T14:38:04.206Z,6.30
2023-04-09T14:40:31.931Z,6.72
2023-04-09T14:43:01.563Z,5.15
2023-04-09T14:45:30.069Z,7.82
2023-04-09T14:47:59.884Z,5.68
2023-04-09T14:50:26.473Z,5.93
2023-04-09T14:52:53.152Z,5.60
2023-04-09T14:55:19.758Z,7.57
2023-04-09T14:57:46.627Z,6.93
2023-04-09T15:00:13.524Z,4.93
2023-04-09T15:02:40.202Z,4.50
2023-04-09T15:05:07.509Z,6.35
2023-04-09T15:07:34.414Z,5.45
2023-04-09T15:10:01.022Z,3.92
2023-04-09T15:12:28.732Z,5.65
2023-04-09T15:14:57.001Z,4.78
2023-04-09T15:17:24.393Z,4.47
2023-04-09T15:19:53.906Z,3.45
2023-04-09T15:22:20.963Z,5.50
2023-04-09T15:24:47.656Z,4.85
2023-04-09T15:27:14.173Z,3.45
2023-04-09T15:29:40.722Z,5.97
2023-04-09T15:32:07.336Z,5.32
2023-04-09T15:34:34.009Z,5.75
2023-04-09T15:37:00.595Z,3.53
2023-04-09T15:39:28.494Z,3.95
2023-04-09T15:41:58.440Z,3.78
2023-04-09T15:44:25.954Z,4.55
2023-04-09T15:46:52.485Z,3.63
2023-04-09T15:49:19.672Z,4.30
2023-04-09T15:51:46.478Z,5.00
2023-04-09T15:54:13.160Z,3.80
2023-04-09T15:56:40.396Z,4.43
2023-04-09T15:59:08.245Z,4.50
2023-04-09T16:01:36.408Z,3.28
2023-04-09T16:04:04.310Z,3.67
2023-04-09T16:06:31.012Z,3.60
2023-04-09T16:08:57.643Z,3.63
2023-04-09T16:11:24.148Z,5.15
2023-04-09T16:13:50.759Z,3.30
2023-04-09T16:16:17.336Z,5.15
2023-04-09T16:18:43.885Z,3.13
2023-04-09T16:21:10.513Z,3.63
2023-04-09T16:23:37.168Z,3.20
2023-04-09T16:26:03.889Z,5.38
2023-04-09T16:28:30.486Z,5.10
2023-04-09T16:30:57.060Z,3.97
2023-04-09T16:33:23.607Z,2.83
2023-04-09T16:35:50.327Z,4.05
2023-04-09T16:38:17.110Z,3.67
2023-04-09T16:40:43.748Z,3.92
2023-04-09T16:43:10.313Z,3.92
2023-04-09T16:45:36.902Z,3.92
2023-04-09T16:48:06.143Z,4.13
2023-04-09T16:53:01.043Z,5.60
2023-04-09T16:55:27.611Z,5.35
2023-04-09T16:57:56.264Z,6.00
2023-04-09T17:00:22.820Z,3.40
2023-04-09T17:02:49.626Z,6.15
2023-04-09T17:05:17.846Z,5.32
2023-04-09T17:07:44.640Z,4.70
2023-04-09T17:10:11.454Z,4.88
2023-04-09T17:12:38.296Z,6.80
2023-04-09T17:15:05.141Z,6.88
2023-04-09T17:17:33.253Z,6.90
2023-04-09T17:20:01.444Z,4.20
2023-04-09T17:22:28.177Z,6.47
2023-04-09T17:24:54.727Z,4.60
2023-04-09T17:27:21.796Z,4.47
2023-04-09T17:29:48.385Z,4.72
2023-04-09T17:32:14.942Z,4.20
2023-04-09T17:34:41.554Z,4.20
2023-04-09T17:37:08.165Z,5.82
2023-04-09T17:39:34.810Z,5.00
2023-04-09T17:42:03.584Z,5.25
2023-04-09T17:44:33.429Z,6.43
2023-04-09T17:46:59.941Z,6.70
2023-04-09T17:49:30.526Z,7.20
2023-04-09T17:51:58.699Z,6.43
2023-04-09T17:54:25.716Z,5.63
2023-04-09T17:56:52.409Z,6.70
2023-04-09T17:59:18.965Z,7.68
2023-04-09T18:01:45.673Z,5.88
2023-04-09T18:04:12.807Z,6.18
2023-04-09T18:06:39.792Z,6.18
2023-04-09T18:09:06.365Z,6.65
2023-04-09T18:11:32.960Z,7.80
2023-04-09T18:13:59.636Z,5.75
2023-04-09T18:16:26.302Z,7.90
2023-04-09T18:18:53.206Z,6.45
2023-04-09T18:21:20.194Z,5.88
2023-04-09T18:23:46.837Z,4.22
2023-04-09T18:26:13.574Z,5.93
2023-04-09T18:28:40.139Z,4.22
2023-04-09T18:31:07.001Z,5.15
2023-04-09T18:33:34.167Z,5.07
2023-04-09T18:36:01.886Z,5.10
2023-04-09T18:38:31.782Z,5.45
2023-04-09T18:40:58.402Z,5.38
2023-04-09T18:43:25.885Z,5.50
2023-04-09T18:45:52.598Z,7.40
2023-04-09T18:48:19.391Z,10.63
2023-04-09T18:50:46.067Z,15.85
2023-04-09T18:53:12.880Z,11.52
2023-04-09T18:55:39.524Z,10.35
2023-04-09T18:58:08.782Z,6.63
2023-04-09T19:00:35.748Z,6.32
2023-04-09T19:03:02.677Z,5.93
2023-04-09T19:05:32.945Z,6.22
2023-04-09T19:08:00.226Z,3.65
2023-04-09T19:10:27.165Z,3.35
2023-04-09T19:12:54.161Z,5.47
2023-04-09T19:15:27.149Z,8.88
2023-04-09T19:17:54.189Z,7.05
2023-04-09T19:20:20.859Z,6.97
2023-04-09T19:22:54.220Z,6.35
2023-04-09T19:25:22.694Z,7.05
2023-04-09T19:27:49.510Z,8.00
2023-04-09T19:30:16.320Z,5.15
2023-04-09T19:32:45.482Z,7.63
2023-04-09T19:35:12.468Z,6.97
2023-04-09T19:37:39.770Z,6.72
2023-04-09T19:40:07.295Z,7.22
2023-04-09T19:42:34.288Z,6.28
2023-04-09T19:45:00.973Z,7.50
2023-04-09T19:47:27.891Z,6.03
2023-04-09T19:49:54.789Z,6.63
2023-04-09T19:52:21.819Z,6.30
2023-04-09T19:54:54.523Z,8.20
2023-04-09T19:57:21.575Z,10.02
2023-04-09T19:59:49.878Z,8.90
2023-04-09T20:02:16.975Z,5.90
2023-04-09T20:04:43.884Z,9.18
2023-04-09T20:07:10.754Z,7.40
2023-04-09T20:09:41.190Z,9.07
2023-04-09T20:12:09.407Z,8.30
2023-04-09T20:14:38.071Z,9.25
2023-04-09T20:17:09.568Z,6.88
2023-04-09T20:19:37.666Z,6.95
2023-04-09T20:22:04.542Z,7.97
2023-04-09T20:24:32.134Z,10.52
2023-04-09T20:26:59.671Z,8.60
2023-04-09T20:29:26.441Z,9.23
2023-04-09T20:31:53.215Z,7.57
2023-04-09T20:34:20.126Z,10.75
2023-04-09T20:36:47.731Z,12.15
2023-04-09T20:39:14.303Z,14.43
2023-04-09T20:41:40.924Z,13.48
2023-04-09T20:44:07.542Z,17.67
2023-04-09T20:46:34.155Z,20.83
2023-04-09T20:49:01.581Z,15.73
2023-04-09T20:51:28.235Z,17.60
2023-04-09T20:53:54.803Z,20.60
2023-04-09T20:56:21.478Z,19.23
2023-04-09T20:58:48.076Z,21.00
2023-04-09T21:01:15.667Z,23.00
2023-04-09T21:03:42.820Z,19.10
2023-04-09T21:06:09.846Z,16.88
2023-04-09T21:08:37.214Z,11.48
2023-04-09T21:11:04.132Z,14.50
2023-04-09T21:13:33.695Z,8.80
2023-04-09T21:16:05.183Z,9.73
2023-04-09T21:18:31.727Z,10.52
2023-04-09T21:20:58.309Z,10.18
2023-04-09T21:23:24.924Z,9.90
2023-04-09T21:25:51.582Z,9.40
2023-04-09T21:28:18.114Z,8.15
2023-04-09T21:30:44.683Z,7.65
2023-04-09T21:33:11.505Z,9.02
2023-04-09T21:35:38.303Z,6.97
2023-04-09T21:38:05.040Z,8.38
2023-04-09T21:40:31.815Z,7.72
2023-04-09T21:42:58.514Z,6.15
2023-04-09T21:45:25.313Z,8.98
2023-04-09T21:47:52.436Z,11.77
2023-04-09T21:50:19.548Z,8.38
2023-04-09T21:52:47.164Z,3.83
2023-04-09T21:55:14.120Z,5.32
2023-04-09T21:57:40.846Z,5.20
2023-04-09T22:00:10.425Z,4.38
2023-04-09T22:05:06.011Z,6.50
2023-04-09T22:07:32.862Z,5.38
2023-04-09T22:09:59.667Z,6.78
2023-04-09T22:12:26.563Z,5.03
2023-04-09T22:14:53.090Z,5.25
2023-04-09T22:17:19.701Z,4.50
2023-04-09T22:19:46.440Z,6.25
2023-04-09T22:22:15.044Z,7.35
2023-04-09T22:24:42.946Z,5.22
2023-04-09T22:27:12.472Z,6.63
2023-04-09T22:29:38.997Z,6.32
2023-04-09T22:32:05.641Z,6.18
2023-04-09T22:34:32.247Z,6.30
2023-04-09T22:36:59.028Z,6.30
2023-04-09T22:39:25.757Z,7.50
2023-04-09T22:41:52.285Z,6.82
2023-04-09T22:44:19.100Z,6.75
2023-04-09T22:46:46.513Z,8.50
2023-04-09T22:49:13.206Z,8.15
2023-04-09T22:51:41.772Z,7.75
2023-04-09T22:54:08.974Z,6.47
2023-04-09T22:56:36.625Z,6.22
2023-04-09T22:59:03.347Z,6.88
2023-04-09T23:01:32.021Z,10.27
2023-04-09T23:03:58.604Z,6.22
2023-04-09T23:06:25.766Z,6.00
2023-04-09T23:08:52.590Z,7.40
2023-04-09T23:11:19.437Z,7.68
2023-04-09T23:13:46.087Z,6.43
2023-04-09T23:16:13.389Z,6.38
2023-04-09T23:18:40.264Z,5.68
2023-04-09T23:21:10.716Z,8.52
2023-04-09T23:23:38.053Z,7.05
2023-04-09T23:26:05.297Z,6.03
2023-04-09T23:28:31.847Z,9.07
2023-04-09T23:30:58.377Z,8.98
2023-04-09T23:33:24.992Z,5.03
2023-04-09T23:35:51.746Z,4.75
2023-04-09T23:38:18.430Z,6.20
2023-04-09T23:40:47.189Z,5.28
2023-04-09T23:43:13.900Z,7.57
2023-04-09T23:45:40.561Z,8.20
2023-04-09T23:48:08.705Z,7.53
2023-04-09T23:50:39.165Z,5.55
2023-04-09T23:53:06.599Z,4.90
2023-04-09T23:55:33.994Z,6.35
2023-04-09T23:58:01.060Z,4.80
